Knapp Lake, Indiana
Current Conditions -  °F | °C
As of 3:55 PM on Friday 31 Oct 2014 (Local Time) from KASW Reporting Station
Light Rain Light Rain  
Wind Chill: 27°   Ceiling: 1400
Heat Index: 37°   Visibility: 10mi
Dew Point: 34°   Wind: 21mph
Humidity: 87%   Direction: 10°N
Pressure: 29.97"   Gusts: 33mph
Location:  41.3616°N, 85.6019°W
Report Text: KASW 311955Z AUTO 01018G29KT 10SM -RA OVC014 03/01 A2997 RMK AO2
Loading
Personal Weather Stations






























Interactive Weather Map
Tropical Storm Tracking
New forecast layout! Learn more

10-Day Weather Forecast

Advertisements
Track Severe Weather on mobile